• Join FlightAware (Why Join?)
  • Login
  • US Flag 
03:30AM EDT


 

Airport Tracker/Info


-or-


 

Live Flight TrackerFlight Track Log ✈ UAL6285 ✈ 16-Jul-2013 ✈ KMFR - KDEN

Flight Track Log - Related Links

Times and Time Zones

All times are in EDT time to prevent confusion due to time zone crossing. See the UAL6285 flight status page for this flight to view local times or setup timezone preferences in your user account.

Time Position Orientation Groundspeed Altitude Reporting Facility
EDT Latitude Longitude Course Direction KTS MPH feet Rate Location/Type
08:48AM 42.4039 -122.8875 124° Southeast 170 196 2,600  Level Seattle Center
08:49AM 42.4525 -122.9039 346° North 186 214 5,000 2,160 Climbing Seattle Center
08:50AM 42.5086 -122.9261 344° North 210 242 7,000 1,440 Climbing Seattle Center
08:51AM 42.3504 -122.6010 120° Southeast  Level FlightAware Approximate
08:51AM 42.5683 -122.8969 20° North 278 320 7,900  Level Seattle Center
08:52AM 42.3026 -122.4598 121° Southeast  Level FlightAware Approximate
08:52AM 42.5706 -122.7897 88° East 288 331 9,900  Level Seattle Center
08:53AM 42.2513 -122.3193 124° Southeast  Level FlightAware Approximate
08:53AM 42.5686 -122.6808 91° East 290 334 11,900  Level Seattle Center
08:54AM 42.5658 -122.5714 92° East 290 334 13,800 1,860 Climbing Seattle Center
08:55AM 42.5642 -122.4608 91° East 294 338 15,700 1,560 Climbing Seattle Center
08:56AM 42.5608 -122.3481 92° East 298 343 17,000 1,380 Climbing Seattle Center
08:57AM 42.5581 -122.2311 92° East 310 357 18,600 1,140 Climbing Seattle Center
08:58AM 42.5544 -122.1086 92° East 320 368 19,300 900 Climbing Seattle Center
08:59AM 42.5506 -121.9822 92° East 332 382 20,500 1,080 Climbing Seattle Center
09:00AM 42.5469 -121.8544 92° East 337 388 21,500 840 Climbing Seattle Center
09:01AM 42.5439 -121.7211 92° East 349 402 22,300 780 Climbing Seattle Center
09:02AM 42.5394 -121.5847 92° East 358 412 23,100 540 Climbing Seattle Center
09:03AM 42.5347 -121.4422 93° East 374 430 23,500 600 Climbing Seattle Center
09:04AM 42.5303 -121.2944 92° East 388 447 24,400 720 Climbing Seattle Center
09:05AM 42.5261 -121.1450 92° East 397 457 25,000 660 Climbing Seattle Center
09:06AM 42.5208 -120.9944 93° East 399 459 25,800 600 Climbing Seattle Center
09:07AM 42.5150 -120.8414 93° East 406 467 26,300 480 Climbing Seattle Center
09:08AM 42.5097 -120.6856 93° East 413 475 26,800 540 Climbing Seattle Center
09:09AM 42.5039 -120.5303 93° East 414 476 27,400 540 Climbing Seattle Center
09:10AM 42.4983 -120.3736 93° East 417 480 27,900 360 Climbing Seattle Center
09:11AM 42.4911 -120.2167 94° East 417 480 28,200 300 Climbing Seattle Center
09:12AM 42.4858 -120.0583 93° East 421 484 28,600 300 Climbing Seattle Center
09:13AM 42.4761 -119.8622 94° East 433 498 28,900 480 Climbing Seattle Center
09:14AM 42.4683 -119.7008 94° East 431 496 29,600 540 Climbing Seattle Center
09:15AM 42.4597 -119.5439 94° East 420 483 30,000 240 Climbing Seattle Center
09:16AM 42.4514 -119.3839 94° East 426 490 30,200 180 Climbing Seattle Center
09:18AM 42.4442 -119.2217 93° East 433 498 30,400 180 Climbing Seattle Center
09:18AM 42.4386 -119.0819 93° East 434 499 30,600 180 Climbing Salt Lake Center
09:20AM 42.4300 -118.9172 94° East 440 506 30,800 180 Climbing Salt Lake Center
09:21AM 42.4192 -118.7228 94° East 445 512 31,000 240 Climbing Salt Lake Center
09:22AM 42.4103 -118.5642 94° East 444 511 31,400 420 Climbing Salt Lake Center
09:23AM 42.3994 -118.3803 94° East 440 506 31,900 360 Climbing Salt Lake Center
09:24AM 42.3906 -118.2225 94° East 439 505 32,200 300 Climbing Salt Lake Center
09:25AM 42.3800 -118.0572 95° East 438 504 32,600 360 Climbing Salt Lake Center
09:26AM 42.3714 -117.9017 94° East 434 499 33,000 180 Climbing Salt Lake Center
09:27AM 42.3597 -117.7228 95° East 434 499 33,000  Level Salt Lake Center
09:28AM 42.3494 -117.5664 95° East 436 502 33,000  Level Salt Lake Center
09:29AM 42.3364 -117.3786 95° East 448 516 33,000  Level Salt Lake Center
09:30AM 42.3256 -117.2181 95° East 450 518 33,000  Level Salt Lake Center
09:31AM 42.3147 -117.0564 95° East 453 521 33,000  Level Salt Lake Center
09:32AM 42.3006 -116.8653 96° East 455 524 33,000  Level Salt Lake Center
09:33AM 42.2889 -116.6997 95° East 462 532 33,000  Level Salt Lake Center
09:34AM 42.2747 -116.5086 96° East 459 528 33,000  Level Salt Lake Center
09:35AM 42.2622 -116.3461 96° East 456 525 33,000  Level Salt Lake Center
09:36AM 42.2494 -116.1842 96° East 453 521 33,000  Level Salt Lake Center
09:37AM 42.2358 -115.9956 96° East 453 521 33,000  Level Salt Lake Center
09:38AM 42.2222 -115.8361 97° East 448 516 33,000  Level Salt Lake Center
09:39AM 42.2078 -115.6503 96° East 447 514 33,000  Level Salt Lake Center
09:40AM 42.1939 -115.4908 97° East 449 517 33,000  Level Salt Lake Center
09:41AM 42.1811 -115.3328 96° East 445 512 33,000  Level Salt Lake Center
09:42AM 42.1650 -115.1483 97° East 445 512 33,000  Level Salt Lake Center
09:43AM 42.1517 -114.9897 96° East 445 512 33,000  Level Salt Lake Center
09:44AM 42.1356 -114.8064 97° East 447 514 33,000  Level Salt Lake Center
09:45AM 42.1206 -114.6414 97° East 446 513 33,000  Level Salt Lake Center
09:46AM 42.1042 -114.4772 98° East 443 510 33,000  Level Salt Lake Center
09:47AM 42.0897 -114.3131 97° East 443 510 33,000  Level Salt Lake Center
09:48AM 42.0742 -114.1481 97° East 445 512 33,000  Level Salt Lake Center
09:49AM 42.0581 -113.9839 97° East 445 512 33,000  Level Salt Lake Center
09:50AM 42.0419 -113.8186 97° East 447 514 33,000  Level Salt Lake Center
09:51AM 42.0264 -113.6536 97° East 445 512 33,000  Level Salt Lake Center
09:52AM 42.0050 -113.4561 98° East 446 513 33,000  Level Salt Lake Center
09:53AM 41.9886 -113.2908 98° East 448 516 33,000  Level Salt Lake Center
09:54AM 41.9711 -113.1267 98° East 446 513 33,000  Level Salt Lake Center
09:55AM 41.9544 -112.9625 98° East 445 512 33,000  Level Salt Lake Center
09:56AM 41.9361 -112.7989 99° East 443 510 33,000  Level Salt Lake Center
09:57AM 41.9189 -112.6336 98° East 446 513 33,000  Level Salt Lake Center
09:58AM 41.9000 -112.4692 99° East 446 513 33,000  Level Salt Lake Center
09:59AM 41.8808 -112.3058 99° East 444 511 33,000  Level Salt Lake Center
10:00AM 41.8617 -112.1414 99° East 445 512 33,000  Level Salt Lake Center
10:01AM 41.8386 -111.9425 99° East 448 516 33,000  Level Salt Lake Center
10:02AM 41.8325 -111.7778 93° East 445 512 33,000  Level Salt Lake Center
10:03AM 41.8950 -111.6397 59° Northeast 445 512 33,000  Level Salt Lake Center
10:05AM 41.9975 -111.5553 31° Northeast 432 497 33,000  Level Salt Lake Center
10:06AM 42.1003 -111.4700 32° Northeast 434 499 33,000  Level Salt Lake Center
10:07AM 42.2008 -111.3817 33° Northeast 432 497 33,000  Level Salt Lake Center
10:08AM 42.3042 -111.2939 32° Northeast 437 503 33,000  Level Salt Lake Center
10:09AM 42.4069 -111.2039 33° Northeast 439 505 33,000  Level Salt Lake Center
10:10AM 42.5156 -111.0722 42° Northeast 441 507 33,000  Level Salt Lake Center
10:11AM 42.5667 -110.9153 66° East 442 509 33,000  Level Salt Lake Center
10:12AM 42.5625 -110.7553 92° East 445 512 33,000  Level Salt Lake Center
10:13AM 42.5139 -110.6117 115° Southeast 442 509 33,000  Level Salt Lake Center
10:14AM 42.4392 -110.4558 123° Southeast 440 506 33,000  Level Salt Lake Center
10:15AM 42.3758 -110.3217 123° Southeast 444 511 33,000  Level Salt Lake Center
10:16AM 42.3008 -110.1639 123° Southeast 445 512 33,000  Level Salt Lake Center
10:17AM 42.2369 -110.0297 123° Southeast 445 512 33,000  Level Salt Lake Center
10:18AM 42.1608 -109.8725 123° Southeast 447 514 33,000  Level Salt Lake Center
10:19AM 42.0958 -109.7372 123° Southeast 448 516 33,000  Level Salt Lake Center
10:20AM 42.0206 -109.5800 123° Southeast 447 514 33,000  Level Salt Lake Center
10:21AM 41.9550 -109.4444 123° Southeast 450 518 33,000  Level Salt Lake Center
10:22AM 41.8889 -109.3100 123° Southeast 450 518 33,000  Level Salt Lake Center
10:23AM 41.8111 -109.1511 123° Southeast 453 521 33,000  Level Salt Lake Center
10:24AM 41.7444 -109.0156 123° Southeast 453 521 33,000  Level Salt Lake Center
10:25AM 41.6664 -108.8567 123° Southeast 453 521 33,000  Level Salt Lake Center
10:26AM 41.5986 -108.7206 124° Southeast 455 524 33,000  Level Salt Lake Center
10:27AM 41.5306 -108.5847 124° Southeast 455 524 33,000  Level Salt Lake Center
10:28AM 41.4508 -108.4283 124° Southeast 457 526 33,000  Level Salt Lake Center
10:29AM 41.3831 -108.2950 124° Southeast 454 522 33,000  Level Salt Lake Center
10:30AM 41.3489 -108.2269 124° Southeast 453 521 33,000  Level Denver Center
10:31AM 41.2839 -108.0611 118° Southeast 454 522 33,000  Level Denver Center
10:32AM 41.2283 -107.9214 118° Southeast 449 517 33,000 -660 Level Denver Center
10:33AM 41.1647 -107.7589 117° Southeast 445 512 31,700 -1,020 Descending Denver Center
10:34AM 41.1114 -107.6244 118° Southeast 432 497 31,000 -360 Descending Denver Center
10:35AM 41.0525 -107.4756 118° Southeast 411 473 31,000  Level Denver Center
10:36AM 41.0053 -107.3442 115° Southeast 411 473 31,000  Level Denver Center
10:37AM 40.9542 -107.1869 113° Southeast 416 479 31,000  Level Denver Center
10:38AM 40.9092 -107.0528 114° Southeast 417 480 31,000  Level Denver Center
10:39AM 40.8558 -106.8928 114° Southeast 424 488 31,000  Level Denver Center
10:40AM 40.8108 -106.7547 113° Southeast 428 493 31,000 -300 Level Denver Center
10:41AM 40.7569 -106.5936 114° Southeast 431 496 30,400 -1,080 Descending Denver Center
10:42AM 40.7047 -106.4411 114° Southeast 451 519 28,800 -1,440 Descending Denver Center
10:43AM 40.6572 -106.3056 115° Southeast 428 493 27,500 -1,500 Descending Denver Center
10:44AM 40.6086 -106.1622 114° Southeast 386 444 25,700 -1,680 Descending Denver Center
10:45AM 40.5694 -106.0436 113° Southeast 359 413 24,100 -1,560 Descending Denver Center
10:46AM 40.5278 -105.9278 115° Southeast 352 405 22,500 -1,560 Descending Denver Center
10:47AM 40.4892 -105.8111 113° Southeast 350 403 20,900 -1,560 Descending Denver Center
10:48AM 40.4486 -105.7019 116° Southeast 336 387 19,300 -1,560 Descending Denver Center
10:49AM 40.4111 -105.5919 114° Southeast 331 381 17,700 -1,140 Descending Denver Center
10:50AM 40.3653 -105.4625 115° Southeast 326 375 17,000 -840 Descending Denver Center
10:51AM 40.3447 -105.3481 103° East 315 362 16,000 -1,080 Descending Denver Center
10:52AM 40.3294 -105.2347 100° East 317 365 14,800 -1,080 Descending Denver Center
10:54AM 40.3136 -105.1239 101° East 311 358 13,800 -1,020 Descending Denver Center
10:55AM 40.2839 -105.0142 110° East 301 346 12,800 -1,020 Descending Denver Center
10:56AM 40.2364 -104.9331 127° Southeast 278 320 11,700 -1,200 Descending Denver Center
10:57AM 40.1914 -104.8544 127° Southeast 253 291 10,400 -1,140 Descending Denver Center
10:58AM 40.1533 -104.7833 125° Southeast 241 277 9,400 -780 Descending Denver Center
10:59AM 40.0956 -104.7522 158° South 209 241 8,800 -720 Descending Denver Center
11:00AM 40.0467 -104.7261 158° South 193 222 8,000 -780 Descending Denver Center